Terminal Aerodrome Forecast
Issued by NWS

Home | Current Version | Previous Version | Text Only | Print | Product List | Glossary On
Versions: 1 2 3 4 5 6 7 8 9 10 11 12 13 14 15 16 17 18 19 20 21 22 23
000
FTUS46 KPQR 271218 AAA
TAFONP
TAF AMD
KONP 271218Z 2712/2812 VRB03KT 5SM BR OVC010
     FM271500 35008KT P6SM OVC015
     FM272100 34011KT P6SM SCT015
     FM280200 35010KT 2SM BR BKN005
     FM280600 35003KT 4SM BR OVC006=

USA.gov is the U.S. government's official web portal to all federal, state and local government web resources and services.